Zamokta, Russia
Current Conditions -  °F | °C
As of 5:00 PM on Friday 24 Oct 2014 (Local Time) from UIUU Reporting Station
Broken Clouds Broken Clouds  
Wind Chill: 39°   Ceiling: 3200
Heat Index: 43°   Visibility: 6mi
Dew Point: 32°   Wind: 7mph
Humidity: 66%   Direction: 290°WNW
Pressure: 29.77"   Gusts: NA
Location:  52.77°N, 109.97°E
Report Text: UIUU 240900Z 29003MPS 260V320 9999 BKN032CB 06/M00 Q1008 NOSIGRMK QFE712/0949 26CLRD60
Loading
Personal Weather Stations






























Interactive Weather Map
Tropical Storm Tracking
New forecast layout! Learn more

10-Day Weather Forecast

Advertisements
Track Severe Weather on mobile